Time;durP1;ratioP1;P1;durP2;ratioP2;P2;SDS_P1;SDS_P2;PMS_P1;PMS_P2;Temp;Humidity;BMP_temperature;BMP_pressure;BME280_temperature;BME280_humidity;BME280_pressure;Samples;Min_cycle;Max_cycle;Signal;HPM_P1;HPM_P2
2022/01/27 00:05:38;;;;;;;43.93;19.90;;;4.10;99.90;;;;;;5088735;23;20264;-74
2022/01/27 00:13:09;;;;;;;40.60;18.67;;;4.00;99.90;;;;;;5065201;28;20269;-74
2022/01/27 00:15:35;;;;;;;44.33;19.70;;;4.00;99.90;;;;;;5054870;28;20642;-74
2022/01/27 00:18:07;;;;;;;45.57;20.20;;;4.00;99.90;;;;;;5042405;28;20240;-74
2022/01/27 00:20:33;;;;;;;45.83;18.97;;;4.00;99.90;;;;;;5042520;28;20209;-74
2022/01/27 00:22:59;;;;;;;41.67;19.60;;;4.10;99.90;;;;;;5045096;28;20203;-74
2022/01/27 00:25:24;;;;;;;40.73;18.33;;;4.10;99.90;;;;;;5031139;28;20222;-74
2022/01/27 00:27:50;;;;;;;45.70;19.53;;;4.00;99.90;;;;;;5040728;28;20183;-75
2022/01/27 00:30:16;;;;;;;41.00;17.93;;;4.00;99.90;;;;;;5034779;28;20243;-74
2022/01/27 00:32:41;;;;;;;37.83;17.33;;;4.00;99.90;;;;;;5041703;28;20212;-74
2022/01/27 00:35:07;;;;;;;37.57;17.03;;;4.00;99.90;;;;;;5044191;28;20696;-74
2022/01/27 00:37:33;;;;;;;46.77;18.90;;;4.00;99.90;;;;;;5039015;28;20340;-74
2022/01/27 00:39:59;;;;;;;42.13;18.63;;;4.10;99.90;;;;;;5030454;28;20179;-74
2022/01/27 00:42:26;;;;;;;41.70;18.37;;;4.00;99.90;;;;;;5040040;28;20667;-74
2022/01/27 00:44:52;;;;;;;35.93;16.80;;;4.00;99.90;;;;;;5037560;28;20250;-74
2022/01/27 00:47:18;;;;;;;46.00;17.97;;;4.00;99.90;;;;;;5037214;28;20707;-74
2022/01/27 00:49:43;;;;;;;38.90;18.83;;;4.00;99.90;;;;;;5033505;28;20202;-76
2022/01/27 00:52:15;;;;;;;41.03;17.23;;;4.00;99.90;;;;;;5057968;28;20224;-74
2022/01/27 00:54:40;;;;;;;39.23;18.47;;;4.10;99.90;;;;;;5049581;28;20284;-74
2022/01/27 00:57:14;;;;;;;37.10;16.77;;;4.10;99.90;;;;;;5054536;28;20762;-74
2022/01/27 00:59:59;;;;;;;35.90;17.07;;;4.00;99.90;;;;;;5045436;28;20218;-74
2022/01/27 01:05:17;;;;;;;37.60;17.73;;;4.00;99.90;;;;;;5054083;28;20213;-74
2022/01/27 01:07:45;;;;;;;35.47;17.00;;;4.10;99.90;;;;;;5053939;28;20795;-76
2022/01/27 01:15:37;;;;;;;42.30;17.50;;;4.00;99.90;;;;;;5049435;28;20215;-74
2022/01/27 01:18:18;;;;;;;31.03;15.93;;;4.10;99.90;;;;;;5052545;28;20949;-73
2022/01/27 01:21:02;;;;;;;36.13;15.80;;;4.10;99.90;;;;;;5043172;28;20580;-74
2022/01/27 01:31:50;;;;;;;35.07;15.27;;;4.10;99.90;;;;;;5042188;28;20277;-74
2022/01/27 01:36:53;;;;;;;34.73;15.17;;;4.10;99.90;;;;;;5045280;28;20607;-74
2022/01/27 01:39:19;;;;;;;35.37;16.07;;;4.10;99.90;;;;;;5060832;28;20666;-76
2022/01/27 01:41:45;;;;;;;28.23;14.00;;;4.10;99.90;;;;;;5050093;28;20242;-75
2022/01/27 01:44:11;;;;;;;29.93;14.83;;;4.10;99.90;;;;;;5048441;28;20647;-74
2022/01/27 01:46:36;;;;;;;25.43;13.23;;;4.20;99.90;;;;;;5045263;28;20301;-74
2022/01/27 01:49:03;;;;;;;29.53;14.50;;;4.10;99.90;;;;;;5045214;28;20173;-74
2022/01/27 01:51:32;;;;;;;28.70;14.47;;;4.20;99.90;;;;;;5044624;28;20616;-74
2022/01/27 01:53:57;;;;;;;31.00;13.80;;;4.20;99.90;;;;;;5033266;28;20920;-74
2022/01/27 01:56:23;;;;;;;28.53;14.77;;;4.20;99.90;;;;;;5040264;28;20221;-74
2022/01/27 01:58:49;;;;;;;29.03;14.03;;;4.20;99.90;;;;;;5045115;28;20618;-74
2022/01/27 02:01:16;;;;;;;28.03;13.87;;;4.20;99.90;;;;;;5044959;28;20218;-74
2022/01/27 02:03:41;;;;;;;27.83;13.53;;;4.20;99.90;;;;;;5042008;28;20202;-74
2022/01/27 02:06:11;;;;;;;26.23;14.27;;;4.20;99.90;;;;;;5039375;28;20218;-75
2022/01/27 02:08:45;;;;;;;25.07;12.67;;;4.20;99.90;;;;;;5059550;28;20205;-74
2022/01/27 02:19:28;;;;;;;24.27;11.63;;;4.20;99.90;;;;;;5036028;28;20708;-75
2022/01/27 02:22:00;;;;;;;26.47;12.50;;;4.20;99.90;;;;;;5045648;28;20191;-76
2022/01/27 02:24:28;;;;;;;24.17;12.67;;;4.20;99.90;;;;;;5044586;28;20683;-74
2022/01/27 02:26:54;;;;;;;22.70;12.47;;;4.20;99.90;;;;;;5048027;28;20577;-75
2022/01/27 02:29:21;;;;;;;22.20;12.23;;;4.30;99.90;;;;;;5038784;28;20211;-76
2022/01/27 02:31:48;;;;;;;26.77;13.03;;;4.30;99.90;;;;;;5044431;28;20205;-75
2022/01/27 02:34:13;;;;;;;24.80;11.80;;;4.30;99.90;;;;;;5052308;28;20218;-75
2022/01/27 02:36:39;;;;;;;26.33;12.67;;;4.30;99.90;;;;;;5043317;28;20178;-75
2022/01/27 02:39:07;;;;;;;24.30;12.97;;;4.30;99.90;;;;;;5052149;28;20222;-76
2022/01/27 02:42:01;;;;;;;24.93;12.43;;;4.30;99.90;;;;;;5049365;28;20241;-75
2022/01/27 02:44:47;;;;;;;24.20;12.53;;;4.30;99.90;;;;;;5048802;28;20242;-75
2022/01/27 02:47:14;;;;;;;21.47;11.97;;;4.30;99.90;;;;;;5035663;28;20214;-75
2022/01/27 02:49:39;;;;;;;23.23;11.80;;;4.30;99.90;;;;;;5038443;28;20206;-76
2022/01/27 02:52:05;;;;;;;22.80;12.83;;;4.30;99.90;;;;;;5044907;28;20175;-74
2022/01/27 02:54:31;;;;;;;27.03;13.03;;;4.30;99.90;;;;;;5052202;28;20760;-75
2022/01/27 02:56:56;;;;;;;26.53;12.67;;;4.30;99.90;;;;;;5051985;28;20236;-74
2022/01/27 02:59:23;;;;;;;22.60;12.13;;;4.30;99.90;;;;;;5035041;28;20236;-76
2022/01/27 03:01:49;;;;;;;26.90;13.57;;;4.30;99.90;;;;;;5042514;28;20598;-75
2022/01/27 03:04:16;;;;;;;26.33;12.43;;;4.40;99.90;;;;;;5035802;28;20231;-75
2022/01/27 03:06:43;;;;;;;22.87;13.13;;;4.30;99.90;;;;;;5043385;28;20525;-75
2022/01/27 03:09:09;;;;;;;24.83;13.30;;;4.40;99.90;;;;;;5041654;28;20216;-75
2022/01/27 03:11:35;;;;;;;24.33;12.80;;;4.40;99.90;;;;;;5043485;28;20574;-75
2022/01/27 03:14:01;;;;;;;22.87;12.10;;;4.40;99.90;;;;;;5043040;28;20260;-75
2022/01/27 03:16:27;;;;;;;23.03;11.97;;;4.40;99.90;;;;;;5042564;28;20304;-75
2022/01/27 03:18:52;;;;;;;23.17;12.93;;;4.40;99.90;;;;;;5043385;28;20241;-74
2022/01/27 03:21:18;;;;;;;21.40;12.43;;;4.50;99.90;;;;;;5036647;28;20183;-75
2022/01/27 03:23:43;;;;;;;24.63;11.73;;;4.40;99.90;;;;;;5034617;28;20242;-76
2022/01/27 03:26:09;;;;;;;22.13;11.87;;;4.40;99.90;;;;;;5043298;28;20207;-75
2022/01/27 03:28:34;;;;;;;22.73;12.60;;;4.40;99.90;;;;;;5040741;28;20708;-76
2022/01/27 03:31:00;;;;;;;21.07;12.90;;;4.50;99.90;;;;;;5039697;28;20652;-75
2022/01/27 03:33:25;;;;;;;25.90;12.07;;;4.40;99.90;;;;;;5038734;28;20167;-75
2022/01/27 03:35:51;;;;;;;22.23;11.93;;;4.40;99.90;;;;;;5030813;28;20211;-75
2022/01/27 03:38:16;;;;;;;21.23;12.27;;;4.50;99.90;;;;;;5030992;28;20207;-75
2022/01/27 03:40:42;;;;;;;24.93;13.00;;;4.50;99.90;;;;;;5033686;28;20228;-75
2022/01/27 03:43:09;;;;;;;23.77;12.80;;;4.50;99.90;;;;;;5044309;28;20208;-76
2022/01/27 03:45:35;;;;;;;19.97;10.47;;;4.50;99.90;;;;;;5045850;28;20224;-75
2022/01/27 03:48:01;;;;;;;21.87;11.93;;;4.50;99.90;;;;;;5035246;28;20575;-75
2022/01/27 03:50:27;;;;;;;23.17;12.07;;;4.50;99.90;;;;;;5033452;28;20283;-75
2022/01/27 03:52:52;;;;;;;20.37;12.37;;;4.50;99.90;;;;;;5031076;28;20228;-75
2022/01/27 03:55:18;;;;;;;20.77;11.70;;;4.50;99.90;;;;;;5031181;28;20219;-75
2022/01/27 03:57:43;;;;;;;21.80;12.73;;;4.50;99.90;;;;;;5031165;28;20178;-74
2022/01/27 04:00:09;;;;;;;19.13;11.93;;;4.50;99.90;;;;;;5030689;28;20215;-75
2022/01/27 04:02:38;;;;;;;17.73;11.63;;;4.50;99.90;;;;;;5031844;28;20203;-75
2022/01/27 04:05:04;;;;;;;21.33;11.83;;;4.50;99.90;;;;;;5035627;28;20226;-75
2022/01/27 04:07:30;;;;;;;20.17;11.70;;;4.50;99.90;;;;;;5030930;28;20267;-75
2022/01/27 04:09:55;;;;;;;22.33;12.37;;;4.50;99.90;;;;;;5030471;28;20183;-73
2022/01/27 04:12:21;;;;;;;21.70;11.90;;;4.50;99.90;;;;;;5032062;28;20185;-72
2022/01/27 04:14:46;;;;;;;21.77;12.50;;;4.50;99.90;;;;;;5045876;28;20207;-73
2022/01/27 04:17:12;;;;;;;19.17;11.90;;;4.60;99.90;;;;;;5030829;28;20211;-73
2022/01/27 04:19:37;;;;;;;21.80;11.50;;;4.60;99.90;;;;;;5030149;28;20215;-73
2022/01/27 04:22:03;;;;;;;18.77;10.70;;;4.60;99.90;;;;;;5030853;28;20180;-75
2022/01/27 04:24:30;;;;;;;18.70;10.73;;;4.60;99.90;;;;;;5030637;28;20212;-75
2022/01/27 04:27:03;;;;;;;19.87;11.17;;;4.60;99.90;;;;;;5030879;28;20235;-73
2022/01/27 04:29:31;;;;;;;19.27;10.70;;;4.60;99.90;;;;;;5030023;28;20570;-73
2022/01/27 04:31:59;;;;;;;18.67;10.40;;;4.70;99.90;;;;;;5050151;28;20223;-73
2022/01/27 04:34:25;;;;;;;17.03;9.47;;;4.70;99.90;;;;;;5037136;28;20223;-73
2022/01/27 04:36:52;;;;;;;14.27;8.90;;;4.70;99.90;;;;;;5043448;28;20173;-72
2022/01/27 04:39:25;;;;;;;17.73;10.00;;;4.70;99.90;;;;;;5042532;28;20247;-73
2022/01/27 04:42:05;;;;;;;14.03;8.63;;;4.70;99.90;;;;;;5033371;28;20213;-73
2022/01/27 04:44:40;;;;;;;17.50;9.10;;;4.70;99.90;;;;;;5032728;28;20721;-74
2022/01/27 04:47:22;;;;;;;17.07;9.80;;;4.70;99.90;;;;;;5034592;28;20628;-73
2022/01/27 04:49:48;;;;;;;15.13;8.73;;;4.80;99.90;;;;;;5034167;28;20302;-73
2022/01/27 04:52:14;;;;;;;13.87;8.80;;;4.70;99.90;;;;;;5033085;28;20282;-74
2022/01/27 04:55:02;;;;;;;14.00;8.37;;;4.80;99.90;;;;;;5033217;28;20583;-74
2022/01/27 04:57:29;;;;;;;15.87;8.33;;;4.80;99.90;;;;;;5043080;28;20275;-74
2022/01/27 04:59:54;;;;;;;15.00;8.63;;;4.80;99.90;;;;;;5036009;28;20293;-73
2022/01/27 05:02:31;;;;;;;11.77;7.70;;;4.80;99.90;;;;;;5033749;28;20271;-73
2022/01/27 05:04:57;;;;;;;11.60;8.30;;;4.80;99.90;;;;;;5036208;28;20210;-72
2022/01/27 05:07:22;;;;;;;13.40;7.73;;;4.80;99.90;;;;;;5033964;28;20214;-73
2022/01/27 05:09:55;;;;;;;13.33;8.40;;;4.80;99.90;;;;;;5033816;28;20187;-73
2022/01/27 05:12:40;;;;;;;13.97;7.77;;;4.80;99.90;;;;;;5049617;28;20293;-73
2022/01/27 05:15:06;;;;;;;12.50;7.70;;;4.80;99.90;;;;;;5033817;28;20211;-74
2022/01/27 05:17:31;;;;;;;12.97;8.23;;;4.80;99.90;;;;;;5033717;28;20218;-74
2022/01/27 05:19:57;;;;;;;11.07;7.67;;;4.80;99.90;;;;;;5032069;28;20208;-74
2022/01/27 05:22:22;;;;;;;14.23;7.23;;;4.80;99.90;;;;;;5033730;28;20710;-75
2022/01/27 05:24:48;;;;;;;11.27;7.73;;;4.80;99.90;;;;;;5042496;28;20214;-73
2022/01/27 05:27:13;;;;;;;11.50;6.97;;;4.80;99.90;;;;;;5036486;28;20214;-73
2022/01/27 05:29:39;;;;;;;11.40;7.57;;;4.80;99.90;;;;;;5042052;28;20216;-73
2022/01/27 05:32:05;;;;;;;12.97;7.90;;;4.80;99.90;;;;;;5040385;28;20232;-74
2022/01/27 05:34:30;;;;;;;12.87;7.53;;;4.70;99.90;;;;;;5046566;28;20234;-74
2022/01/27 05:36:56;;;;;;;13.57;8.20;;;4.70;99.90;;;;;;5032354;28;20176;-73
2022/01/27 05:39:21;;;;;;;12.90;8.33;;;4.70;99.90;;;;;;5031916;28;20176;-73
2022/01/27 05:41:47;;;;;;;13.67;8.17;;;4.80;99.90;;;;;;5043322;28;20207;-73
2022/01/27 05:44:12;;;;;;;13.47;8.30;;;4.80;99.90;;;;;;5037551;28;20216;-73
2022/01/27 05:46:38;;;;;;;12.90;8.70;;;4.80;99.90;;;;;;5048565;28;20649;-73
2022/01/27 05:49:03;;;;;;;14.07;7.87;;;4.80;99.90;;;;;;5033213;28;20173;-73
2022/01/27 05:51:29;;;;;;;15.27;8.47;;;4.80;99.90;;;;;;5040007;28;20183;-74
2022/01/27 05:53:54;;;;;;;14.13;9.10;;;4.80;99.90;;;;;;5033174;28;20203;-74
2022/01/27 05:56:20;;;;;;;15.73;8.83;;;4.80;99.90;;;;;;5041647;28;20208;-73
2022/01/27 05:58:45;;;;;;;14.73;8.67;;;4.80;99.90;;;;;;5041325;28;20207;-73
2022/01/27 06:01:11;;;;;;;18.33;8.53;;;4.80;99.90;;;;;;5048381;28;20671;-73
2022/01/27 06:03:37;;;;;;;18.30;10.27;;;4.80;99.90;;;;;;5036943;28;20175;-73
2022/01/27 06:06:03;;;;;;;18.30;10.37;;;4.80;99.90;;;;;;5046548;28;20306;-75
2022/01/27 06:08:30;;;;;;;15.67;9.10;;;4.80;99.90;;;;;;5051641;28;20594;-74
2022/01/27 06:10:56;;;;;;;14.93;9.23;;;4.80;99.90;;;;;;5041323;28;20748;-74
2022/01/27 06:13:22;;;;;;;17.73;10.37;;;4.70;99.90;;;;;;5033037;28;20719;-74
2022/01/27 06:15:47;;;;;;;17.27;10.57;;;4.70;99.90;;;;;;5045450;28;20191;-74
2022/01/27 06:18:13;;;;;;;20.20;11.07;;;4.70;99.90;;;;;;5043756;28;20212;-72
2022/01/27 06:20:40;;;;;;;15.10;10.37;;;4.70;99.90;;;;;;5042253;28;20709;-74
2022/01/27 06:23:05;;;;;;;19.40;11.40;;;4.70;99.90;;;;;;5044494;28;20264;-75
2022/01/27 06:25:31;;;;;;;18.63;10.20;;;4.70;99.90;;;;;;5042983;28;20303;-73
2022/01/27 06:27:58;;;;;;;18.03;11.40;;;4.70;99.90;;;;;;5047349;28;20180;-74
2022/01/27 06:30:23;;;;;;;17.83;11.43;;;4.60;99.90;;;;;;5041576;28;20554;-74
2022/01/27 06:32:49;;;;;;;20.27;12.17;;;4.70;99.90;;;;;;5047506;28;20206;-74
2022/01/27 06:35:15;;;;;;;19.07;12.30;;;4.70;99.90;;;;;;5048019;28;20261;-75
2022/01/27 06:37:42;;;;;;;19.77;11.60;;;4.70;99.90;;;;;;5044184;28;20226;-74
2022/01/27 06:40:13;;;;;;;22.00;12.20;;;4.70;99.90;;;;;;5042685;28;20179;-74
2022/01/27 06:42:40;;;;;;;22.20;12.80;;;4.70;99.90;;;;;;5042055;28;20180;-74
2022/01/27 06:45:06;;;;;;;20.90;12.63;;;4.70;99.90;;;;;;5038083;28;20746;-74
2022/01/27 06:47:32;;;;;;;20.83;13.53;;;4.70;99.90;;;;;;5052218;28;20215;-75
2022/01/27 06:49:57;;;;;;;26.53;14.33;;;4.60;99.90;;;;;;5043810;28;20375;-73
2022/01/27 06:52:26;;;;;;;21.63;13.87;;;4.60;99.90;;;;;;5049990;28;20302;-73
2022/01/27 06:54:52;;;;;;;22.70;13.87;;;4.60;99.90;;;;;;5043937;28;20786;-73
2022/01/27 06:57:18;;;;;;;22.67;14.73;;;4.60;99.90;;;;;;5036773;28;20267;-73
2022/01/27 06:59:43;;;;;;;23.70;14.10;;;4.60;99.90;;;;;;5051215;28;20599;-74
2022/01/27 07:02:09;;;;;;;26.37;15.83;;;4.60;99.90;;;;;;5044114;28;20706;-74
2022/01/27 07:04:35;;;;;;;28.63;15.83;;;4.60;99.90;;;;;;5039432;28;20280;-75
2022/01/27 07:07:00;;;;;;;24.00;15.07;;;4.60;99.90;;;;;;5032142;28;20180;-75
2022/01/27 07:09:26;;;;;;;24.93;15.13;;;4.60;99.90;;;;;;5032035;28;20187;-74
2022/01/27 07:11:51;;;;;;;24.37;15.47;;;4.60;99.90;;;;;;5035076;28;20222;-75
2022/01/27 07:14:17;;;;;;;28.13;16.60;;;4.60;99.90;;;;;;5066870;28;20691;-75
2022/01/27 07:16:43;;;;;;;29.13;16.63;;;4.70;99.90;;;;;;5032159;28;20204;-75
2022/01/27 07:19:09;;;;;;;31.67;17.53;;;4.70;99.90;;;;;;5038443;28;20225;-75
2022/01/27 07:21:34;;;;;;;27.80;17.10;;;4.70;99.90;;;;;;5048142;28;20199;-75
2022/01/27 07:24:00;;;;;;;31.67;17.63;;;4.70;99.90;;;;;;5044021;28;20222;-77
2022/01/27 07:26:26;;;;;;;27.70;18.30;;;4.60;99.90;;;;;;5050552;28;20224;-75
2022/01/27 07:28:53;;;;;;;35.23;19.43;;;4.60;99.90;;;;;;5035697;28;20208;-75
2022/01/27 07:31:21;;;;;;;39.73;20.83;;;4.70;99.90;;;;;;5042427;28;20282;-74
2022/01/27 07:33:48;;;;;;;36.10;19.73;;;4.60;99.90;;;;;;5044351;28;20179;-76
2022/01/27 07:36:15;;;;;;;38.63;20.97;;;4.70;99.90;;;;;;5044134;28;20219;-74
2022/01/27 07:38:44;;;;;;;41.77;22.33;;;4.70;99.90;;;;;;5038886;28;20224;-75
2022/01/27 07:41:16;;;;;;;58.53;32.13;;;4.70;99.90;;;;;;5038327;28;20265;-75
2022/01/27 07:43:48;;;;;;;47.63;25.57;;;4.70;99.90;;;;;;5047130;28;20254;-75
2022/01/27 07:46:14;;;;;;;45.90;24.73;;;4.70;99.90;;;;;;5045937;28;20227;-77
2022/01/27 07:48:43;;;;;;;45.73;23.20;;;4.70;99.90;;;;;;5040815;28;20180;-74
2022/01/27 07:51:19;;;;;;;44.27;24.27;;;4.70;99.90;;;;;;5045051;28;20224;-74
2022/01/27 07:53:50;;;;;;;48.00;24.50;;;4.70;99.90;;;;;;5042568;28;20592;-75
2022/01/27 07:56:16;;;;;;;45.67;23.63;;;4.70;99.90;;;;;;5059877;28;20303;-76
2022/01/27 07:58:43;;;;;;;43.60;23.47;;;4.70;99.90;;;;;;5032823;28;20248;-75
2022/01/27 08:01:08;;;;;;;40.20;23.50;;;4.70;99.90;;;;;;5046213;28;20197;-76
2022/01/27 08:03:38;;;;;;;46.13;23.37;;;4.70;99.90;;;;;;5057390;28;20184;-74
2022/01/27 08:06:05;;;;;;;38.93;22.23;;;4.70;99.90;;;;;;5045718;28;20218;-74
2022/01/27 08:08:34;;;;;;;41.43;22.53;;;4.70;99.90;;;;;;5042597;28;20222;-75
2022/01/27 08:10:59;;;;;;;44.40;23.03;;;4.70;99.90;;;;;;5036736;28;20211;-75
2022/01/27 08:13:26;;;;;;;45.43;22.10;;;4.70;99.90;;;;;;5051438;28;20691;-75
2022/01/27 08:15:51;;;;;;;41.77;22.07;;;4.80;99.90;;;;;;5039857;28;20207;-75
2022/01/27 08:18:17;;;;;;;37.73;21.00;;;4.70;99.90;;;;;;5040649;28;20208;-75
2022/01/27 08:20:44;;;;;;;38.00;20.87;;;4.70;99.90;;;;;;5034177;28;20676;-75
2022/01/27 08:23:12;;;;;;;44.90;21.43;;;4.60;99.90;;;;;;5042873;28;20228;-75
2022/01/27 08:25:38;;;;;;;39.17;21.17;;;4.60;99.90;;;;;;5033912;28;20239;-76
2022/01/27 08:28:06;;;;;;;41.23;22.33;;;4.60;99.90;;;;;;5050431;28;20187;-75
2022/01/27 08:30:40;;;;;;;41.20;21.67;;;4.60;99.90;;;;;;5051104;28;20649;-74
2022/01/27 08:33:12;;;;;;;42.87;21.73;;;4.60;99.90;;;;;;5043453;28;20756;-74
2022/01/27 08:35:38;;;;;;;43.73;22.80;;;4.60;99.90;;;;;;5038642;28;20219;-74
2022/01/27 08:38:04;;;;;;;41.63;21.70;;;4.60;99.90;;;;;;5035279;28;20212;-75
2022/01/27 08:40:30;;;;;;;40.17;22.10;;;4.60;99.90;;;;;;5042352;28;20214;-74
2022/01/27 08:42:57;;;;;;;39.90;20.87;;;4.60;99.90;;;;;;5042470;28;20229;-75
2022/01/27 08:45:24;;;;;;;43.67;21.70;;;4.60;99.90;;;;;;5042386;28;20623;-74
2022/01/27 08:47:50;;;;;;;43.90;20.80;;;4.60;99.90;;;;;;5038162;28;20207;-74
2022/01/27 08:50:18;;;;;;;40.97;21.00;;;4.60;99.90;;;;;;5037412;28;20242;-75
2022/01/27 08:52:44;;;;;;;42.50;21.63;;;4.60;99.90;;;;;;5038945;28;20279;-75
2022/01/27 08:55:10;;;;;;;36.77;21.00;;;4.70;99.90;;;;;;5034191;28;20207;-74
2022/01/27 08:57:36;;;;;;;44.20;21.80;;;4.70;99.90;;;;;;5040043;28;20275;-74
2022/01/27 09:00:07;;;;;;;43.63;21.73;;;4.70;99.90;;;;;;5036372;28;20215;-74
2022/01/27 09:02:32;;;;;;;38.80;20.87;;;4.60;99.90;;;;;;5038871;28;20318;-74
2022/01/27 09:04:58;;;;;;;40.43;19.43;;;4.60;99.90;;;;;;5040095;28;20255;-73
2022/01/27 09:07:23;;;;;;;41.67;20.77;;;4.70;99.90;;;;;;5040061;28;20223;-75
2022/01/27 09:09:49;;;;;;;36.73;18.77;;;4.80;99.90;;;;;;5029065;28;20180;-74
2022/01/27 09:12:15;;;;;;;33.87;18.57;;;4.80;99.90;;;;;;5037506;28;20212;-74
2022/01/27 09:14:42;;;;;;;35.00;19.63;;;4.80;99.90;;;;;;5038204;28;20231;-74
2022/01/27 09:17:11;;;;;;;37.43;18.77;;;4.80;99.90;;;;;;5039181;28;20241;-74
2022/01/27 09:19:40;;;;;;;35.77;17.13;;;4.80;99.90;;;;;;5034675;28;20277;-74
2022/01/27 09:22:15;;;;;;;47.63;23.97;;;4.80;99.90;;;;;;5048699;28;20176;-75
2022/01/27 09:25:05;;;;;;;36.57;19.90;;;4.80;99.90;;;;;;5054109;28;20221;-75
2022/01/27 09:27:30;;;;;;;39.30;19.93;;;4.80;99.90;;;;;;5054329;28;20653;-75
2022/01/27 09:29:56;;;;;;;34.40;18.03;;;4.80;99.90;;;;;;5051906;28;20238;-75
2022/01/27 09:32:24;;;;;;;35.77;17.70;;;4.80;99.90;;;;;;5045390;28;20213;-74
2022/01/27 09:34:50;;;;;;;31.40;17.03;;;4.80;99.90;;;;;;5044225;28;20218;-75
2022/01/27 09:37:15;;;;;;;36.80;17.80;;;4.70;99.90;;;;;;5053219;28;20221;-75
2022/01/27 09:39:42;;;;;;;35.73;17.53;;;4.80;99.90;;;;;;5055518;28;20186;-74
2022/01/27 09:42:08;;;;;;;30.47;16.27;;;4.80;99.90;;;;;;5051260;28;20649;-75
2022/01/27 09:44:35;;;;;;;34.50;17.23;;;4.80;99.90;;;;;;5042768;28;20220;-75
2022/01/27 09:47:07;;;;;;;31.27;17.43;;;4.80;99.90;;;;;;5048787;28;20283;-75
2022/01/27 09:49:41;;;;;;;31.30;16.57;;;4.80;99.90;;;;;;5041439;28;20586;-75
2022/01/27 09:52:07;;;;;;;33.20;16.40;;;4.90;99.90;;;;;;5046670;28;20174;-75
2022/01/27 09:54:34;;;;;;;29.33;16.00;;;4.90;99.90;;;;;;5053708;28;20214;-75
2022/01/27 09:57:00;;;;;;;26.77;14.23;;;4.90;99.90;;;;;;5052179;28;20210;-75
2022/01/27 09:59:26;;;;;;;30.60;16.93;;;4.90;99.90;;;;;;5044735;28;20308;-75
2022/01/27 10:01:53;;;;;;;32.33;15.50;;;4.80;99.90;;;;;;5049446;28;20655;-75
2022/01/27 10:04:18;;;;;;;31.30;16.53;;;4.80;99.90;;;;;;5041377;28;20313;-75
2022/01/27 10:06:45;;;;;;;30.90;15.90;;;4.90;99.90;;;;;;5045160;28;20258;-75
2022/01/27 10:09:20;;;;;;;28.30;16.33;;;4.90;99.90;;;;;;5045069;28;20215;-75
2022/01/27 10:11:48;;;;;;;29.53;15.10;;;4.90;99.90;;;;;;5041388;28;20751;-76
2022/01/27 10:14:27;;;;;;;34.70;17.57;;;4.90;99.90;;;;;;5047528;28;20356;-76
2022/01/27 10:16:59;;;;;;;31.50;17.37;;;4.90;99.90;;;;;;5033463;28;20207;-74
2022/01/27 10:19:26;;;;;;;36.90;18.50;;;4.90;99.90;;;;;;5039715;28;20207;-74
2022/01/27 10:22:01;;;;;;;28.60;16.30;;;4.80;99.90;;;;;;5042945;28;20536;-74
2022/01/27 10:24:29;;;;;;;31.73;16.33;;;4.70;99.90;;;;;;5061862;28;20215;-74
2022/01/27 10:27:18;;;;;;;31.03;15.70;;;4.60;99.90;;;;;;5037490;28;20237;-74
2022/01/27 10:32:38;;;;;;;29.27;15.60;;;4.50;99.90;;;;;;5013333;28;20207;-75
2022/01/27 10:35:04;;;;;;;31.93;15.67;;;4.50;99.90;;;;;;5038867;28;20211;-75
2022/01/27 10:37:53;;;;;;;35.43;17.90;;;4.60;99.90;;;;;;5060303;28;20267;-75
2022/01/27 10:40:34;;;;;;;29.27;16.40;;;4.60;99.90;;;;;;5044433;28;20219;-75
2022/01/27 10:43:05;;;;;;;32.03;16.80;;;4.60;99.90;;;;;;5047030;28;20176;-75
2022/01/27 10:45:31;;;;;;;35.37;17.40;;;4.60;99.90;;;;;;5044608;28;20199;-75
2022/01/27 10:48:19;;;;;;;34.87;17.50;;;4.60;99.90;;;;;;5033599;28;20202;-74
2022/01/27 10:50:54;;;;;;;28.43;15.27;;;4.60;99.90;;;;;;5044095;28;20203;-75
2022/01/27 10:53:20;;;;;;;32.47;16.97;;;4.60;99.90;;;;;;5054281;28;20206;-75
2022/01/27 10:56:02;;;;;;;34.20;17.30;;;4.50;99.90;;;;;;5045810;28;20215;-74
2022/01/27 10:58:28;;;;;;;31.87;16.70;;;4.60;99.90;;;;;;5044517;28;20241;-75
2022/01/27 11:00:58;;;;;;;47.63;24.77;;;4.60;99.90;;;;;;5054313;28;20652;-75
2022/01/27 11:03:24;;;;;;;38.13;18.70;;;4.60;99.90;;;;;;5052351;28;20651;-75
2022/01/27 11:05:50;;;;;;;37.90;20.00;;;4.70;99.90;;;;;;5039807;28;20225;-75
2022/01/27 11:08:19;;;;;;;35.47;17.10;;;4.70;99.90;;;;;;5050353;28;20206;-75
2022/01/27 11:10:48;;;;;;;35.80;18.70;;;4.70;99.90;;;;;;5050909;28;20204;-75
2022/01/27 11:13:16;;;;;;;33.27;16.70;;;4.70;99.90;;;;;;5041912;28;20208;-75
2022/01/27 11:15:45;;;;;;;31.60;16.30;;;4.80;99.90;;;;;;5053204;28;20226;-75
2022/01/27 11:18:14;;;;;;;30.97;14.93;;;4.80;99.90;;;;;;5046723;28;20216;-75
2022/01/27 11:21:00;;;;;;;31.67;16.77;;;4.80;99.90;;;;;;5042385;28;20215;-75
2022/01/27 11:26:07;;;;;;;31.47;16.23;;;4.80;99.90;;;;;;5053187;28;20219;-75
2022/01/27 11:28:33;;;;;;;32.13;15.63;;;4.80;99.90;;;;;;5041194;28;20698;-75
2022/01/27 11:31:36;;;;;;;31.20;16.23;;;4.80;99.90;;;;;;5042102;28;20653;-75
2022/01/27 11:34:04;;;;;;;32.37;16.40;;;4.80;99.90;;;;;;5045659;28;20277;-74
2022/01/27 11:36:30;;;;;;;29.03;16.07;;;4.80;99.90;;;;;;5046219;28;20187;-74
2022/01/27 11:38:59;;;;;;;29.87;15.07;;;4.70;99.90;;;;;;5047307;28;20711;-76
2022/01/27 11:41:50;;;;;;;28.93;15.30;;;4.80;99.90;;;;;;5049934;28;20566;-75
2022/01/27 11:44:26;;;;;;;29.20;14.77;;;4.80;99.90;;;;;;5052382;28;20309;-75
2022/01/27 11:47:10;;;;;;;27.57;14.90;;;4.80;99.90;;;;;;5045549;28;20206;-75
2022/01/27 11:49:54;;;;;;;35.07;18.20;;;4.80;99.90;;;;;;5070253;28;20596;-76
2022/01/27 11:52:22;;;;;;;33.87;18.30;;;4.80;99.90;;;;;;5067281;28;20245;-75
2022/01/27 11:54:47;;;;;;;27.27;15.10;;;4.90;99.90;;;;;;5043832;28;20231;-75
2022/01/27 11:57:40;;;;;;;27.77;14.83;;;4.90;99.90;;;;;;5052203;28;20254;-75
2022/01/27 12:00:35;;;;;;;28.00;14.43;;;4.80;99.90;;;;;;5045645;28;20224;-75
2022/01/27 12:03:04;;;;;;;26.10;14.80;;;4.80;99.90;;;;;;5026971;28;20215;-74
2022/01/27 12:05:42;;;;;;;26.23;15.40;;;4.90;99.90;;;;;;5067832;23;20234;-77
2022/01/27 12:08:14;;;;;;;27.97;14.80;;;5.00;99.90;;;;;;5060931;28;20206;-77
2022/01/27 12:10:48;;;;;;;30.73;15.27;;;5.00;99.90;;;;;;5061043;28;20575;-77
2022/01/27 12:13:26;;;;;;;28.00;13.37;;;5.00;99.90;;;;;;5086845;28;20213;-75
2022/01/27 12:16:12;;;;;;;26.03;14.47;;;5.00;99.90;;;;;;5064127;28;20556;-77
2022/01/27 12:18:38;;;;;;;26.37;13.53;;;5.00;99.90;;;;;;5071055;28;20237;-76
2022/01/27 12:21:44;;;;;;;27.20;14.23;;;5.00;99.90;;;;;;5070576;28;20252;-76
2022/01/27 12:27:06;;;;;;;27.40;14.10;;;5.00;99.90;;;;;;5070892;28;20213;-77
2022/01/27 12:29:35;;;;;;;28.60;13.73;;;5.00;99.90;;;;;;5070441;28;20214;-77
2022/01/27 12:32:17;;;;;;;26.10;13.60;;;5.00;99.90;;;;;;5070841;28;20206;-77
2022/01/27 12:34:49;;;;;;;26.60;13.60;;;5.00;99.90;;;;;;5070525;28;20288;-77
2022/01/27 12:37:18;;;;;;;24.47;13.23;;;5.00;99.90;;;;;;5070812;28;20214;-76
2022/01/27 12:39:54;;;;;;;26.03;13.83;;;5.00;99.90;;;;;;5052347;28;20206;-77
2022/01/27 12:42:23;;;;;;;40.67;21.97;;;5.10;99.90;;;;;;5070946;28;20275;-78
2022/01/27 12:45:01;;;;;;;39.37;20.63;;;5.10;99.90;;;;;;5062147;28;20218;-77
2022/01/27 12:47:29;;;;;;;28.47;17.03;;;5.20;99.90;;;;;;5052077;28;20202;-77
2022/01/27 12:50:08;;;;;;;27.60;14.07;;;5.20;99.90;;;;;;5052080;28;20206;-77
2022/01/27 12:52:39;;;;;;;25.60;13.40;;;5.20;99.90;;;;;;5056873;28;20219;-78
2022/01/27 12:55:07;;;;;;;21.17;11.90;;;5.20;99.90;;;;;;5074464;28;20203;-78
2022/01/27 12:57:32;;;;;;;22.20;11.90;;;5.20;99.90;;;;;;5075198;28;20180;-77
2022/01/27 12:59:59;;;;;;;22.20;12.60;;;5.20;99.90;;;;;;5055616;28;20207;-77
2022/01/27 13:02:27;;;;;;;24.83;11.93;;;5.20;99.90;;;;;;5056319;28;20232;-79
2022/01/27 13:04:55;;;;;;;20.50;12.00;;;5.20;99.90;;;;;;5073686;28;20218;-77
2022/01/27 13:07:22;;;;;;;21.03;10.33;;;5.20;99.90;;;;;;5074014;28;20214;-78
2022/01/27 13:10:01;;;;;;;21.67;11.13;;;5.30;99.90;;;;;;5048051;28;20536;-77
2022/01/27 13:12:49;;;;;;;16.87;10.40;;;5.30;99.90;;;;;;5074294;28;20212;-78
2022/01/27 13:15:25;;;;;;;19.90;10.60;;;5.30;99.90;;;;;;5055603;28;20259;-78
2022/01/27 13:20:24;;;;;;;16.80;9.97;;;5.30;99.90;;;;;;5073745;28;20743;-77
2022/01/27 13:23:09;;;;;;;16.07;9.67;;;5.40;99.90;;;;;;5054656;28;20210;-78
2022/01/27 13:25:37;;;;;;;15.20;8.90;;;5.40;99.90;;;;;;5073246;28;20225;-78
2022/01/27 13:28:07;;;;;;;17.03;9.23;;;5.50;99.90;;;;;;5054953;28;20810;-78
2022/01/27 13:30:35;;;;;;;14.00;8.20;;;5.60;99.90;;;;;;5055605;28;20175;-77
2022/01/27 13:33:02;;;;;;;17.53;8.07;;;5.60;99.90;;;;;;5073560;28;20276;-77
2022/01/27 13:35:27;;;;;;;15.23;8.33;;;5.70;99.90;;;;;;5055252;28;20203;-78